Time;durP1;ratioP1;P1;durP2;ratioP2;P2;SDS_P1;SDS_P2;PMS_P1;PMS_P2;Temp;Humidity;BMP_temperature;BMP_pressure;BME280_temperature;BME280_humidity;BME280_pressure;Samples;Min_cycle;Max_cycle;Signal;HPM_P1;HPM_P2
2023/10/11 00:01:32;;;;;;;;;18.40;17.60;;;;;15.30;58.42;100128.00;5118299;27;8970;-74
2023/10/11 00:04:03;;;;;;;;;17.60;16.00;;;;;15.24;58.88;100122.91;5131588;27;8850;-73
2023/10/11 00:06:34;;;;;;;;;20.60;20.40;;;;;15.16;59.17;100128.44;5123647;27;8879;-74
2023/10/11 00:09:12;;;;;;;;;22.80;22.00;;;;;15.05;59.69;100119.97;5110506;27;8852;-72
2023/10/11 00:11:41;;;;;;;;;23.80;21.20;;;;;14.99;59.86;100125.44;5131816;27;8861;-75
2023/10/11 00:14:10;;;;;;;;;19.20;18.40;;;;;14.78;60.73;100119.88;5079455;27;8851;-72
2023/10/11 00:16:40;;;;;;;;;17.80;16.80;;;;;14.71;60.88;100118.28;5131712;27;8846;-74
2023/10/11 00:19:09;;;;;;;;;19.80;19.80;;;;;14.67;61.01;100121.94;5131234;27;8872;-74
2023/10/11 00:21:42;;;;;;;;;21.80;21.20;;;;;14.50;61.89;100118.91;5129876;27;8874;-73
2023/10/11 00:24:10;;;;;;;;;22.60;22.00;;;;;14.53;61.73;100118.78;5132420;27;9677;-73
2023/10/11 00:26:40;;;;;;;;;21.60;19.20;;;;;14.55;61.39;100122.28;5129965;27;10133;-73
2023/10/11 00:29:11;;;;;;;;;19.00;19.00;;;;;14.61;61.23;100119.47;5111230;27;8899;-73
2023/10/11 00:31:41;;;;;;;;;22.60;20.40;;;;;14.64;61.20;100117.59;5109874;27;8849;-75
2023/10/11 00:34:12;;;;;;;;;23.20;22.20;;;;;14.69;61.03;100114.81;5114317;27;9008;-72
2023/10/11 00:36:45;;;;;;;;;25.60;24.60;;;;;14.67;60.98;100114.84;5123126;27;8883;-71
2023/10/11 00:39:17;;;;;;;;;25.40;25.40;;;;;14.63;61.06;100113.22;5109305;28;8860;-72
2023/10/11 00:41:49;;;;;;;;;24.00;21.60;;;;;14.53;61.70;100105.56;5109185;28;8955;-72
2023/10/11 00:44:20;;;;;;;;;25.20;22.20;;;;;14.57;61.16;100109.88;5125893;27;8849;-73
2023/10/11 00:47:00;;;;;;;;;25.00;22.60;;;;;14.55;61.46;100107.28;5109015;28;8829;-74
2023/10/11 00:49:39;;;;;;;;;22.00;18.20;;;;;14.40;62.31;100105.06;5109563;27;8848;-75
2023/10/11 00:52:13;;;;;;;;;22.60;20.20;;;;;14.46;62.03;100108.38;5110145;28;8833;-75
2023/10/11 00:54:43;;;;;;;;;28.60;25.60;;;;;14.43;61.96;100097.03;5108846;28;8945;-73
2023/10/11 00:57:15;;;;;;;;;23.40;22.40;;;;;14.35;62.42;100093.75;5120082;27;8835;-74
2023/10/11 00:59:44;;;;;;;;;23.60;21.60;;;;;14.41;62.12;100098.84;5108847;28;8831;-72
2023/10/11 01:02:14;;;;;;;;;25.60;23.00;;;;;14.43;61.86;100097.03;5091986;28;8954;-72
2023/10/11 01:04:44;;;;;;;;;21.40;20.00;;;;;14.47;61.75;100104.00;5055937;27;8835;-73
2023/10/11 01:07:14;;;;;;;;;26.00;23.00;;;;;14.52;61.66;100106.50;5070977;27;8842;-72
2023/10/11 01:09:44;;;;;;;;;25.40;23.80;;;;;14.55;61.29;100103.78;5129468;27;8911;-72
2023/10/11 01:12:14;;;;;;;;;18.80;18.80;;;;;14.56;61.28;100108.13;5130523;27;8842;-73
2023/10/11 01:14:56;;;;;;;;;22.60;20.00;;;;;14.55;61.24;100107.28;5129009;27;8846;-74
2023/10/11 01:17:30;;;;;;;;;21.00;18.00;;;;;14.55;61.19;100107.28;5129129;27;9666;-74
2023/10/11 01:19:59;;;;;;;;;23.60;21.80;;;;;14.52;61.36;100102.06;5125929;27;8847;-73
2023/10/11 01:22:30;;;;;;;;;22.00;21.20;;;;;14.54;61.28;100107.31;5108508;28;8862;-73
2023/10/11 01:25:01;;;;;;;;;21.20;20.00;;;;;14.53;61.26;100106.47;5108287;28;8988;-73
2023/10/11 01:27:31;;;;;;;;;24.40;22.00;;;;;14.40;61.97;100108.56;5126354;27;9710;-73
2023/10/11 01:29:59;;;;;;;;;23.00;22.60;;;;;14.46;61.75;100108.38;5130103;27;8850;-73
2023/10/11 01:32:29;;;;;;;;;23.20;22.80;;;;;14.41;61.90;100102.38;5077768;27;8862;-73
2023/10/11 01:34:59;;;;;;;;;17.20;17.00;;;;;14.45;61.72;100106.69;5126912;27;8831;-72
2023/10/11 01:37:36;;;;;;;;;22.80;21.00;;;;;14.44;61.79;100101.41;5090584;28;8959;-72
2023/10/11 01:40:07;;;;;;;;;23.20;22.20;;;;;14.42;61.83;100100.59;5107871;28;8941;-73
2023/10/11 01:42:36;;;;;;;;;25.60;24.20;;;;;14.37;61.95;100102.50;5109052;28;8829;-72
2023/10/11 01:45:08;;;;;;;;;18.80;18.80;;;;;14.34;61.74;100106.09;5108947;28;8873;-74
2023/10/11 01:47:38;;;;;;;;;22.60;21.40;;;;;14.36;61.60;100100.78;5109439;28;8883;-74
2023/10/11 01:50:08;;;;;;;;;18.20;17.20;;;;;14.37;61.59;100099.84;5124742;27;8845;-74
2023/10/11 01:52:38;;;;;;;;;22.20;21.20;;;;;14.36;61.51;100098.13;5116168;27;8875;-74
2023/10/11 01:55:11;;;;;;;;;24.00;22.80;;;;;14.34;61.59;100100.81;5108595;28;9011;-74
2023/10/11 01:57:45;;;;;;;;;17.80;17.40;;;;;14.34;61.54;100110.50;5073317;28;8853;-75
2023/10/11 02:00:15;;;;;;;;;19.40;19.40;;;;;14.29;61.26;100102.72;5090589;28;8833;-71
2023/10/11 02:02:47;;;;;;;;;24.20;22.40;;;;;14.31;61.30;100110.59;5107578;28;8849;-73
2023/10/11 02:05:17;;;;;;;;;22.40;21.80;;;;;14.35;61.19;100110.47;5106579;27;8872;-73
2023/10/11 02:07:48;;;;;;;;;20.80;18.80;;;;;14.35;60.94;100109.59;5107635;28;8845;-74
2023/10/11 02:10:25;;;;;;;;;21.00;19.80;;;;;14.34;60.82;100114.03;5107755;28;9956;-72
2023/10/11 02:12:56;;;;;;;;;21.20;19.00;;;;;14.33;60.83;100120.22;5109461;28;8844;-71
2023/10/11 02:15:28;;;;;;;;;19.60;19.40;;;;;14.24;61.28;100108.13;5107638;28;8873;-76
2023/10/11 02:17:58;;;;;;;;;18.60;17.00;;;;;14.07;62.16;100118.28;5090291;28;8918;-72
2023/10/11 02:20:27;;;;;;;;;22.60;20.80;;;;;14.13;61.88;100117.25;5106444;27;8873;-73
2023/10/11 02:22:59;;;;;;;;;19.20;19.20;;;;;14.12;62.12;100116.38;5108622;28;8845;-77
2023/10/11 02:25:29;;;;;;;;;19.20;19.20;;;;;14.07;62.21;100107.69;5090431;28;8892;-72
2023/10/11 02:27:58;;;;;;;;;21.20;19.00;;;;;14.03;62.27;100108.69;5108506;28;9652;-73
2023/10/11 02:30:27;;;;;;;;;17.80;16.40;;;;;14.01;62.35;100110.50;5106386;28;8869;-73
2023/10/11 02:32:58;;;;;;;;;17.00;17.00;;;;;13.96;62.20;100107.09;5108478;28;8852;-74
2023/10/11 02:35:27;;;;;;;;;18.60;18.20;;;;;13.96;62.38;100107.09;5072010;28;8941;-72
2023/10/11 02:37:59;;;;;;;;;23.20;21.40;;;;;13.97;62.14;100109.72;5126762;27;8854;-73
2023/10/11 02:40:30;;;;;;;;;16.40;15.80;;;;;13.90;62.60;100108.13;5127636;27;8846;-74
2023/10/11 02:43:03;;;;;;;;;20.40;20.40;;;;;13.81;62.71;100103.97;5127699;27;8861;-75
2023/10/11 02:45:33;;;;;;;;;21.80;19.60;;;;;13.81;62.68;100109.25;5117692;28;8849;-75
2023/10/11 02:48:10;;;;;;;;;21.80;20.20;;;;;13.82;62.74;100118.91;5108773;28;8892;-76
2023/10/11 02:50:41;;;;;;;;;23.00;22.60;;;;;13.96;62.15;100113.28;5107511;27;8860;-75
2023/10/11 02:53:21;;;;;;;;;21.40;19.60;;;;;13.87;62.88;100116.16;5109041;27;8841;-74
2023/10/11 02:55:57;;;;;;;;;17.20;16.40;;;;;13.78;62.96;100105.78;5128925;27;9983;-74
2023/10/11 02:58:29;;;;;;;;;20.00;19.40;;;;;13.78;63.13;100109.28;5127519;27;8826;-75
2023/10/11 03:01:02;;;;;;;;;24.60;23.00;;;;;13.79;62.90;100118.06;5088372;28;9629;-75
2023/10/11 03:03:52;;;;;;;;;21.40;21.40;;;;;13.82;62.75;100121.53;5106725;28;8842;-76
2023/10/11 03:06:27;;;;;;;;;26.40;24.20;;;;;13.85;62.93;100126.75;5122232;27;8841;-75
2023/10/11 03:08:57;;;;;;;;;23.20;21.60;;;;;13.87;62.78;100121.44;5108083;27;8861;-74
2023/10/11 03:11:29;;;;;;;;;23.00;21.40;;;;;13.94;62.37;100124.78;5085280;28;9041;-74
2023/10/11 03:14:04;;;;;;;;;23.60;22.60;;;;;13.85;62.74;100125.91;5085279;28;8882;-77
2023/10/11 03:16:33;;;;;;;;;24.40;21.80;;;;;13.95;62.55;100126.53;5088885;28;8904;-75
2023/10/11 03:19:05;;;;;;;;;24.20;21.80;;;;;13.97;62.36;100125.56;5105208;28;8851;-76
2023/10/11 03:21:34;;;;;;;;;25.80;25.40;;;;;13.99;62.29;100123.75;5103652;28;8844;-74
2023/10/11 03:24:06;;;;;;;;;23.60;23.60;;;;;13.93;62.66;100121.28;5071315;28;9561;-76
2023/10/11 03:26:38;;;;;;;;;24.40;21.60;;;;;13.99;62.16;100122.91;5050231;28;8903;-75
2023/10/11 03:29:17;;;;;;;;;21.00;20.60;;;;;14.00;62.20;100133.44;5067921;28;9671;-75
2023/10/11 03:31:47;;;;;;;;;25.60;24.80;;;;;13.97;62.38;100119.44;5084434;28;8886;-76
2023/10/11 03:34:18;;;;;;;;;23.60;21.00;;;;;13.95;62.44;100127.41;5088098;28;8874;-77
2023/10/11 03:36:51;;;;;;;;;22.40;20.00;;;;;13.94;62.69;100125.69;5086739;28;8843;-74
2023/10/11 03:39:39;;;;;;;;;37.00;33.40;;;;;13.96;62.60;100130.91;5088293;28;8863;-76
2023/10/11 03:42:14;;;;;;;;;30.00;29.20;;;;;13.98;62.51;100127.31;5105299;28;9784;-73
2023/10/11 03:44:46;;;;;;;;;31.20;30.80;;;;;13.95;62.62;100127.41;5042953;28;8833;-74
2023/10/11 03:47:23;;;;;;;;;25.00;23.80;;;;;13.94;62.57;100136.25;5111606;28;8861;-72
2023/10/11 03:49:52;;;;;;;;;24.80;22.40;;;;;14.01;62.31;100132.50;5111465;28;9591;-75
2023/10/11 03:52:24;;;;;;;;;25.20;25.00;;;;;14.03;62.19;100141.28;5112649;27;8855;-75
2023/10/11 03:55:03;;;;;;;;;27.60;23.20;;;;;14.04;62.20;100143.03;5115415;27;8833;-75
2023/10/11 03:57:37;;;;;;;;;24.20;23.80;;;;;13.94;62.41;100144.19;5110752;28;8906;-73
2023/10/11 04:00:24;;;;;;;;;24.40;23.20;;;;;13.89;62.55;100149.56;5125314;27;8823;-75
2023/10/11 04:02:56;;;;;;;;;25.80;25.00;;;;;13.87;62.71;100150.50;5099536;27;8849;-75
2023/10/11 04:05:33;;;;;;;;;25.20;24.80;;;;;13.88;62.50;100149.59;5131670;27;8940;-75
2023/10/11 04:08:06;;;;;;;;;49.75;41.25;;;;;13.92;62.43;100147.75;5131557;27;9614;-74
2023/10/11 04:10:41;;;;;;;;;25.20;25.20;;;;;13.97;62.27;100152.00;5096900;27;8881;-74
2023/10/11 04:13:14;;;;;;;;;35.40;32.60;;;;;13.94;62.30;100138.00;5131487;27;9715;-73
2023/10/11 04:15:49;;;;;;;;;27.60;26.40;;;;;13.98;62.18;100147.59;5131797;27;8846;-75
2023/10/11 04:18:33;;;;;;;;;31.00;29.40;;;;;13.94;62.16;100149.47;5129972;27;8907;-74
2023/10/11 04:21:26;;;;;;;;;30.20;26.20;;;;;13.94;62.27;100149.47;5099640;27;8869;-73
2023/10/11 04:23:56;;;;;;;;;26.80;26.80;;;;;13.97;61.83;100144.06;5131043;27;8874;-74
2023/10/11 04:26:33;;;;;;;;;34.40;31.20;;;;;13.97;61.98;100154.66;5131281;27;8850;-73
2023/10/11 04:29:06;;;;;;;;;52.00;42.75;;;;;13.95;62.02;100159.13;5131041;27;8938;-74
2023/10/11 04:31:54;;;;;;;;;39.75;34.50;;;;;13.94;61.99;100165.31;5131249;27;8838;-75
2023/10/11 04:34:30;;;;;;;;;33.40;32.40;;;;;13.91;62.07;100156.59;5111774;27;8865;-73
2023/10/11 04:37:06;;;;;;;;;31.40;29.80;;;;;13.91;62.05;100164.53;5061382;28;8853;-75
2023/10/11 04:39:49;;;;;;;;;30.80;29.60;;;;;13.92;62.04;100163.59;5076727;28;8845;-75
2023/10/11 04:42:20;;;;;;;;;29.40;28.60;;;;;13.94;61.85;100167.97;5110187;28;8841;-73
2023/10/11 04:44:54;;;;;;;;;56.00;44.25;;;;;13.93;61.84;100168.84;5108777;28;8868;-75
2023/10/11 04:47:24;;;;;;;;;49.50;41.75;;;;;13.95;61.79;100163.53;5108963;27;8860;-73
2023/10/11 04:49:54;;;;;;;;;33.40;30.00;;;;;13.91;61.68;100168.03;5109632;28;8848;-76
2023/10/11 04:52:36;;;;;;;;;31.00;29.20;;;;;13.89;61.56;100167.19;5108487;28;8872;-76
2023/10/11 04:55:12;;;;;;;;;29.00;28.20;;;;;13.80;61.96;100176.22;5109681;28;8876;-73
2023/10/11 04:58:03;;;;;;;;;28.20;27.60;;;;;13.82;61.87;100178.81;5108764;28;8837;-75
2023/10/11 05:00:43;;;;;;;;;33.60;31.80;;;;;13.83;61.80;100180.56;5114030;27;8849;-77
2023/10/11 05:03:17;;;;;;;;;28.00;26.60;;;;;13.78;62.25;100188.56;5115390;27;8853;-78
2023/10/11 05:05:59;;;;;;;;;31.20;28.80;;;;;13.77;62.20;100192.13;5111185;27;8849;-74
2023/10/11 05:11:19;;;;;;;;;28.40;26.00;;;;;13.68;62.54;100190.56;5091258;28;9763;-78
2023/10/11 05:14:05;;;;;;;;;29.00;24.40;;;;;13.62;63.03;100188.06;5109175;27;8829;-73
2023/10/11 05:16:37;;;;;;;;;30.00;26.60;;;;;13.58;63.01;100191.69;5120282;27;8850;-78
2023/10/11 05:19:06;;;;;;;;;24.80;22.60;;;;;13.58;62.98;100196.97;5127943;27;8846;-75
2023/10/11 05:21:39;;;;;;;;;29.00;27.60;;;;;13.57;62.89;100195.22;5129619;27;8880;-73
2023/10/11 05:27:03;;;;;;;;;32.60;28.40;;;;;13.59;62.49;100203.97;5122541;27;8865;-74
2023/10/11 05:29:36;;;;;;;;;34.40;31.80;;;;;13.65;62.26;100208.25;5107975;28;9670;-77
2023/10/11 05:32:23;;;;;;;;;31.40;30.60;;;;;13.72;62.06;100209.84;5120073;27;8835;-77
2023/10/11 05:35:07;;;;;;;;;25.60;24.80;;;;;13.72;61.96;100214.28;5111491;27;8849;-77
2023/10/11 05:51:31;;;;;;;;;26.00;23.20;;;;;13.73;61.90;100218.63;5108244;27;8823;-75
2023/10/11 05:54:01;;;;;;;;;27.40;23.60;;;;;13.75;62.11;100224.75;5111335;27;8971;-73
2023/10/11 05:56:33;;;;;;;;;27.40;26.00;;;;;13.80;61.99;100223.78;5114188;27;8918;-75
2023/10/11 05:59:06;;;;;;;;;24.80;24.80;;;;;13.85;61.63;100227.19;5113873;27;8944;-78
2023/10/11 06:01:36;;;;;;;;;22.60;21.80;;;;;13.79;62.03;100221.13;5122983;27;8853;-73
2023/10/11 06:04:08;;;;;;;;;24.80;23.20;;;;;13.85;61.90;100221.03;5119565;27;8854;-74
2023/10/11 06:06:39;;;;;;;;;24.80;23.80;;;;;13.75;62.67;100225.66;5125908;27;8835;-77
2023/10/11 06:09:16;;;;;;;;;28.00;26.60;;;;;13.74;62.49;100225.69;5130153;27;8854;-75
2023/10/11 06:11:48;;;;;;;;;36.40;32.40;;;;;13.62;62.74;100229.44;5047583;27;8885;-76
2023/10/11 06:14:20;;;;;;;;;41.60;36.60;;;;;13.68;62.46;100222.25;5128212;27;9587;-74
2023/10/11 06:16:57;;;;;;;;;41.60;34.20;;;;;13.76;62.15;100232.66;5129556;27;8858;-77
2023/10/11 06:19:27;;;;;;;;;38.40;34.40;;;;;13.79;61.78;100232.59;5128147;27;8842;-76
2023/10/11 06:21:58;;;;;;;;;34.00;31.60;;;;;13.95;61.57;100229.63;5127695;27;8919;-72
2023/10/11 06:24:30;;;;;;;;;32.20;29.40;;;;;13.97;61.32;100226.03;5129562;27;8854;-74
2023/10/11 06:28:09;;;;;;;;;34.20;31.20;;;;;14.12;60.78;100239.78;5125427;27;8841;-76
2023/10/11 06:30:06;;;;;;;;;24.00;22.20;;;;;14.09;60.67;100243.34;5108851;28;8833;-74
2023/10/11 06:32:36;;;;;;;;;30.20;28.40;;;;;14.22;60.46;100241.28;5107247;28;8849;-74
2023/10/11 06:35:06;;;;;;;;;27.20;27.20;;;;;14.20;60.16;100248.38;5108377;28;8875;-77
2023/10/11 06:37:36;;;;;;;;;30.60;29.20;;;;;14.21;60.31;100247.50;5108511;28;8873;-78
2023/10/11 06:40:08;;;;;;;;;28.80;28.20;;;;;14.20;60.32;100240.44;5108627;28;8961;-79
2023/10/11 06:42:37;;;;;;;;;33.40;29.80;;;;;14.24;60.02;100242.09;5107187;28;8897;-76
2023/10/11 06:45:05;;;;;;;;;23.80;21.60;;;;;14.18;60.07;100244.91;5107194;28;9625;-80
2023/10/11 06:47:36;;;;;;;;;24.60;23.20;;;;;14.21;60.05;100242.19;5089179;27;8957;-75
2023/10/11 06:50:11;;;;;;;;;27.00;25.40;;;;;14.26;60.04;100250.88;5108685;28;8856;-75
2023/10/11 06:52:43;;;;;;;;;23.60;23.20;;;;;14.28;59.96;100251.69;5118478;27;8838;-77
2023/10/11 06:55:25;;;;;;;;;25.40;24.20;;;;;14.24;60.28;100255.31;5127348;27;8878;-77
2023/10/11 06:57:56;;;;;;;;;28.80;25.00;;;;;14.23;60.51;100251.81;5127585;27;8854;-80
2023/10/11 07:00:28;;;;;;;;;23.60;22.80;;;;;14.36;59.99;100248.88;5129810;27;8974;-80
2023/10/11 07:03:09;;;;;;;;;25.40;24.60;;;;;14.44;60.15;100254.84;5125290;28;8929;-80
2023/10/11 07:05:41;;;;;;;;;26.00;24.00;;;;;14.44;60.03;100252.19;5115540;27;8853;-82
2023/10/11 07:08:17;;;;;;;;;22.00;21.60;;;;;14.54;59.94;100252.81;5116232;27;8857;-80
2023/10/11 07:11:00;;;;;;;;;21.00;20.60;;;;;14.73;59.66;100246.16;5115950;27;8921;-80
2023/10/11 07:13:30;;;;;;;;;22.00;22.00;;;;;14.77;59.44;100245.19;5123248;28;8857;-78
2023/10/11 07:16:08;;;;;;;;;22.60;22.00;;;;;14.92;59.15;100253.59;5107852;27;8845;-81
2023/10/11 07:18:43;;;;;;;;;20.40;19.20;;;;;15.05;58.88;100255.84;5123279;27;8860;-77
2023/10/11 07:21:15;;;;;;;;;19.20;18.40;;;;;15.16;58.67;100265.28;5112920;27;8897;-77
2023/10/11 07:23:56;;;;;;;;;17.60;17.40;;;;;15.24;58.30;100260.63;5099203;28;8830;-75
2023/10/11 07:26:49;;;;;;;;;20.80;19.60;;;;;15.27;58.35;100257.91;5087816;28;8849;-75
2023/10/11 07:29:21;;;;;;;;;21.00;21.00;;;;;15.41;57.94;100261.00;5098419;28;8874;-75
2023/10/11 07:31:50;;;;;;;;;19.40;18.40;;;;;15.50;57.88;100261.66;5109449;28;8887;-75
2023/10/11 07:34:21;;;;;;;;;25.40;22.60;;;;;15.48;57.96;100255.53;5092006;28;8898;-74
2023/10/11 07:36:50;;;;;;;;;24.60;21.20;;;;;15.60;57.53;100260.47;5108604;28;8898;-76
2023/10/11 07:39:25;;;;;;;;;26.60;25.40;;;;;15.72;57.35;100260.13;5092094;28;8863;-75
2023/10/11 07:42:04;;;;;;;;;23.60;23.40;;;;;15.75;57.27;100251.19;5108739;28;8847;-77
2023/10/11 07:44:36;;;;;;;;;30.60;28.80;;;;;15.84;57.28;100259.72;5108323;28;8871;-76
2023/10/11 07:47:14;;;;;;;;;24.20;24.20;;;;;15.94;57.17;100262.09;5108648;28;8859;-74
2023/10/11 07:49:49;;;;;;;;;32.60;29.60;;;;;16.01;57.00;100260.97;5091285;28;9616;-74
2023/10/11 07:52:20;;;;;;;;;27.40;27.40;;;;;16.15;56.33;100255.22;5107987;28;8985;-76
2023/10/11 07:54:51;;;;;;;;;30.00;28.40;;;;;16.08;56.65;100261.63;5110562;27;8959;-76
2023/10/11 07:57:22;;;;;;;;;30.20;29.00;;;;;16.27;56.45;100261.94;5111025;27;8969;-74
2023/10/11 07:59:52;;;;;;;;;27.80;27.20;;;;;16.41;56.04;100267.63;5119951;27;8834;-74
2023/10/11 08:02:29;;;;;;;;;19.00;17.40;;;;;16.24;56.37;100270.84;5091690;27;8849;-74
2023/10/11 08:05:00;;;;;;;;;31.60;29.20;;;;;16.27;56.62;100269.88;5117715;27;8834;-76
2023/10/11 08:07:32;;;;;;;;;27.60;26.40;;;;;16.20;56.59;100269.22;5078899;28;8853;-77
2023/10/11 08:10:28;;;;;;;;;28.80;27.60;;;;;16.25;56.67;100263.75;5103001;27;8825;-75
2023/10/11 08:12:50;;;;;;;;;27.60;25.60;;;;;16.15;57.01;100271.13;5120117;27;8883;-78
2023/10/11 08:15:22;;;;;;;;;22.80;22.80;;;;;16.22;56.87;100260.28;5116722;27;8833;-76
2023/10/11 08:17:51;;;;;;;;;29.20;29.20;;;;;16.32;56.45;100262.63;5108681;28;8925;-79
2023/10/11 08:20:28;;;;;;;;;25.80;25.60;;;;;16.40;56.33;100268.56;5109632;27;8845;-76
2023/10/11 08:22:57;;;;;;;;;29.20;28.40;;;;;16.43;56.32;100266.63;5119353;27;8967;-77
2023/10/11 08:25:29;;;;;;;;;23.80;23.80;;;;;16.52;55.99;100269.97;5116927;27;8830;-74
2023/10/11 08:28:12;;;;;;;;;30.20;29.20;;;;;16.66;55.61;100270.34;5123172;27;9654;-75
2023/10/11 08:30:45;;;;;;;;;27.60;26.80;;;;;16.74;55.66;100268.28;5125947;27;8853;-74
2023/10/11 08:33:15;;;;;;;;;27.00;26.60;;;;;16.80;55.63;100262.75;5081353;28;8865;-76
2023/10/11 08:35:52;;;;;;;;;27.20;27.20;;;;;16.93;55.74;100262.34;5109525;28;8873;-76
2023/10/11 08:38:24;;;;;;;;;32.40;27.40;;;;;17.00;54.89;100261.16;5120260;27;8877;-75
2023/10/11 08:40:58;;;;;;;;;30.20;28.60;;;;;17.05;55.39;100266.34;5117368;27;8917;-78
2023/10/11 08:43:28;;;;;;;;;27.40;27.20;;;;;17.20;54.73;100258.66;5115743;27;8846;-76
2023/10/11 08:46:05;;;;;;;;;28.60;26.60;;;;;17.33;54.66;100256.44;5126058;27;8856;-76
2023/10/11 08:48:38;;;;;;;;;25.00;24.20;;;;;17.42;54.41;100257.91;5115464;27;8862;-75
2023/10/11 08:51:12;;;;;;;;;26.00;24.40;;;;;17.59;53.90;100251.94;5118347;27;8866;-76
2023/10/11 08:53:46;;;;;;;;;25.60;25.60;;;;;17.51;53.48;100246.03;5121414;27;9012;-75
2023/10/11 08:56:16;;;;;;;;;23.80;23.80;;;;;17.64;52.58;100257.91;5115705;27;9493;-76
2023/10/11 08:58:51;;;;;;;;;32.00;27.80;;;;;17.80;52.42;100252.00;5119275;27;8853;-76
2023/10/11 09:01:24;;;;;;;;;28.60;27.20;;;;;17.92;51.58;100246.19;5124147;27;8837;-76
2023/10/11 09:04:04;;;;;;;;;31.00;29.80;;;;;18.13;51.18;100244.47;5110187;28;8849;-75
2023/10/11 09:06:36;;;;;;;;;25.60;24.00;;;;;18.05;51.03;100255.44;5107923;28;9555;-78
2023/10/11 09:09:05;;;;;;;;;26.00;24.20;;;;;18.15;50.68;100243.47;5109833;28;8949;-77
2023/10/11 09:11:35;;;;;;;;;26.40;24.40;;;;;18.24;50.57;100246.72;5124327;27;8829;-80
2023/10/11 09:14:22;;;;;;;;;17.00;17.00;;;;;18.30;50.27;100244.63;5109947;27;8879;-79
2023/10/11 09:16:57;;;;;;;;;22.80;21.40;;;;;18.39;49.60;100247.88;5113088;27;8870;-75
2023/10/11 09:19:25;;;;;;;;;19.00;18.60;;;;;18.46;49.36;100250.19;5131502;27;8839;-75
2023/10/11 09:22:03;;;;;;;;;19.80;19.40;;;;;18.67;49.17;100247.53;5110695;27;8855;-78
2023/10/11 09:24:38;;;;;;;;;25.00;25.00;;;;;18.64;49.99;100253.00;5130273;27;8862;-78
2023/10/11 09:27:18;;;;;;;;;20.20;19.20;;;;;18.61;48.64;100251.34;5130587;27;8974;-76
2023/10/11 09:29:49;;;;;;;;;20.00;19.00;;;;;18.63;48.82;100240.59;5129940;27;8902;-78
2023/10/11 09:32:19;;;;;;;;;20.40;19.60;;;;;18.53;49.72;100246.34;5130189;27;8862;-75
2023/10/11 09:34:51;;;;;;;;;22.00;20.80;;;;;18.61;49.27;100250.44;5129128;27;8862;-70
2023/10/11 09:37:21;;;;;;;;;20.60;18.20;;;;;18.64;49.37;100240.53;5108888;27;8837;-70
2023/10/11 09:39:51;;;;;;;;;18.40;16.80;;;;;18.72;48.87;100249.06;5108709;28;8853;-71
2023/10/11 09:42:23;;;;;;;;;21.80;20.20;;;;;18.80;48.92;100239.88;5109022;28;8851;-70
2023/10/11 09:44:57;;;;;;;;;20.80;19.20;;;;;18.75;48.84;100246.25;5109190;28;8841;-71
2023/10/11 09:47:31;;;;;;;;;18.20;18.20;;;;;18.90;48.31;100241.22;5109244;28;8880;-71
2023/10/11 09:50:02;;;;;;;;;20.00;19.40;;;;;18.89;48.49;100244.81;5108863;28;8987;-71
2023/10/11 09:52:35;;;;;;;;;18.60;16.00;;;;;18.94;48.40;100243.69;5107998;27;8935;-70
2023/10/11 09:55:17;;;;;;;;;16.20;14.00;;;;;19.23;48.08;100248.63;5129305;27;8986;-73
2023/10/11 09:57:56;;;;;;;;;14.00;13.60;;;;;19.32;47.65;100243.72;5129697;27;9623;-70
2023/10/11 10:00:37;;;;;;;;;15.00;15.00;;;;;19.42;46.90;100249.50;5129497;27;8922;-70
2023/10/11 10:03:12;;;;;;;;;12.00;11.60;;;;;19.51;46.84;100257.09;5109890;27;8854;-72
2023/10/11 10:06:07;;;;;;;;;9.40;9.20;;;;;19.74;46.22;100257.81;5107544;28;9551;-69
2023/10/11 10:08:38;;;;;;;;;10.20;10.00;;;;;19.63;46.04;100249.44;5108381;28;8871;-72
2023/10/11 10:11:12;;;;;;;;;12.60;12.20;;;;;19.58;45.51;100254.16;5108832;28;8975;-71
2023/10/11 10:14:25;;;;;;;;;13.60;12.00;;;;;19.87;45.46;100242.06;5108330;28;8849;-70
2023/10/11 10:17:13;;;;;;;;;12.20;11.20;;;;;19.89;45.63;100237.53;5045502;28;8894;-72
2023/10/11 10:19:44;;;;;;;;;9.20;9.20;;;;;19.90;44.91;100241.94;5045357;28;8866;-72
2023/10/11 10:22:16;;;;;;;;;10.80;9.80;;;;;19.97;44.80;100237.16;5041759;28;8989;-71
2023/10/11 10:24:48;;;;;;;;;11.40;11.40;;;;;20.09;44.46;100233.91;5045432;28;9588;-71
2023/10/11 10:27:45;;;;;;;;;9.00;9.00;;;;;20.31;44.55;100227.50;5045124;28;8850;-73
2023/10/11 10:30:21;;;;;;;;;12.20;12.20;;;;;20.32;43.94;100224.75;5045358;28;8846;-70
2023/10/11 10:33:21;;;;;;;;;12.20;12.00;;;;;20.49;43.11;100229.22;5045084;28;8881;-72
2023/10/11 10:35:51;;;;;;;;;12.60;11.80;;;;;20.47;43.33;100225.78;5045264;28;9198;-70
2023/10/11 10:38:22;;;;;;;;;8.80;8.80;;;;;20.49;43.09;100224.75;5012625;28;8884;-72
2023/10/11 10:41:24;;;;;;;;;13.40;13.40;;;;;20.72;42.25;100224.50;5053622;28;8856;-71
2023/10/11 10:44:16;;;;;;;;;9.20;9.20;;;;;20.78;42.41;100218.81;5065295;28;8816;-73
2023/10/11 10:46:49;;;;;;;;;8.40;8.20;;;;;20.71;41.68;100215.63;5005264;28;9714;-68
2023/10/11 10:49:18;;;;;;;;;8.00;8.00;;;;;20.78;41.79;100214.34;5005907;28;8905;-69
2023/10/11 10:51:48;;;;;;;;;12.60;11.00;;;;;20.91;41.48;100206.53;5006535;28;8890;-71
2023/10/11 10:54:22;;;;;;;;;14.00;13.80;;;;;20.95;41.56;100204.59;5064319;28;8840;-73
2023/10/11 10:56:53;;;;;;;;;17.00;16.00;;;;;20.96;41.63;100209.88;5069008;28;8856;-70
2023/10/11 10:59:25;;;;;;;;;16.40;15.00;;;;;20.90;41.65;100210.16;5068958;28;8871;-71
2023/10/11 11:01:53;;;;;;;;;11.20;11.20;;;;;20.85;41.30;100204.19;5069288;28;8852;-71
2023/10/11 11:04:28;;;;;;;;;9.20;9.20;;;;;21.11;40.57;100197.47;5068751;28;8840;-71
2023/10/11 11:06:58;;;;;;;;;14.60;14.00;;;;;21.08;40.78;100188.75;5068975;28;8865;-69
2023/10/11 11:09:27;;;;;;;;;13.60;13.60;;;;;21.19;40.72;100186.38;5068838;28;9001;-71
2023/10/11 11:12:14;;;;;;;;;18.60;17.80;;;;;21.37;40.92;100185.34;5068802;28;8840;-70
2023/10/11 11:14:54;;;;;;;;;11.80;11.80;;;;;21.29;40.69;100174.19;5036435;28;8900;-70
2023/10/11 11:17:26;;;;;;;;;11.00;9.60;;;;;21.42;39.72;100171.69;5000717;28;8991;-71
2023/10/11 11:20:27;;;;;;;;;11.60;11.60;;;;;21.52;39.47;100172.03;5051074;28;8902;-70
2023/10/11 11:22:56;;;;;;;;;12.20;12.20;;;;;21.72;39.51;100162.91;5075483;28;8849;-72
2023/10/11 11:25:28;;;;;;;;;13.60;13.60;;;;;21.82;39.78;100169.44;5112285;28;8833;-72
2023/10/11 11:28:08;;;;;;;;;14.60;12.80;;;;;21.90;39.25;100169.88;5112048;28;8857;-77
2023/10/11 11:30:37;;;;;;;;;15.40;13.80;;;;;21.97;39.41;100168.53;5122532;27;8842;-78
2023/10/11 11:33:21;;;;;;;;;14.80;14.80;;;;;22.38;38.95;100162.56;5132247;27;8827;-75
2023/10/11 11:35:54;;;;;;;;;16.20;15.00;;;;;22.35;38.93;100157.41;5132304;27;8851;-74
2023/10/11 11:38:24;;;;;;;;;14.00;13.00;;;;;22.54;38.16;100161.63;5113231;27;8968;-77
2023/10/11 11:40:52;;;;;;;;;17.40;15.60;;;;;22.54;38.36;100154.47;5111635;28;8939;-75
2023/10/11 11:43:33;;;;;;;;;13.60;13.00;;;;;22.74;36.56;100161.28;5110568;28;8865;-76
2023/10/11 11:46:01;;;;;;;;;13.80;13.80;;;;;22.70;36.85;100153.53;5123000;27;8981;-76
2023/10/11 11:48:40;;;;;;;;;14.40;14.40;;;;;22.74;36.56;100147.88;5117618;27;8835;-77
2023/10/11 11:51:13;;;;;;;;;16.60;15.00;;;;;22.76;36.84;100142.41;5099034;27;8999;-76
2023/10/11 11:53:44;;;;;;;;;12.00;12.00;;;;;22.81;36.76;100134.97;5117322;27;9604;-77
2023/10/11 11:56:12;;;;;;;;;13.40;13.20;;;;;22.73;36.83;100139.91;5120558;27;9620;-75
2023/10/11 11:58:45;;;;;;;;;10.80;10.80;;;;;22.72;36.34;100130.19;5125327;27;8875;-78
2023/10/11 12:01:19;;;;;;;;;12.40;12.40;;;;;22.59;36.38;100136.28;5121218;27;8835;-75
2023/10/11 12:03:53;;;;;;;;;12.80;12.80;;;;;22.52;36.03;100144.78;5090409;27;8821;-76
2023/10/11 12:06:23;;;;;;;;;13.40;12.20;;;;;22.49;35.89;100143.19;5118767;27;8830;-77
2023/10/11 12:08:57;;;;;;;;;13.40;13.40;;;;;22.41;35.80;100142.75;5117060;27;8949;-76